Time;durP1;ratioP1;P1;durP2;ratioP2;P2;SDS_P1;SDS_P2;PMS_P1;PMS_P2;Temp;Humidity;BMP_temperature;BMP_pressure;BME280_temperature;BME280_humidity;BME280_pressure;Samples;Min_cycle;Max_cycle;Signal;HPM_P1;HPM_P2
2023/04/05 00:02:43;;;;;;;3.78;1.80;;;9.90;87.50;;;;;;10412151;28;20067;-65
2023/04/05 00:07:47;;;;;;;3.83;2.00;;;9.90;87.40;;;;;;10408008;28;20057;-64
2023/04/05 00:12:47;;;;;;;3.95;2.10;;;9.90;87.40;;;;;;10420015;28;20029;-65
2023/04/05 00:17:48;;;;;;;4.90;2.00;;;9.90;87.40;;;;;;10411198;28;20025;-65
2023/04/05 00:22:49;;;;;;;3.45;1.90;;;9.80;87.40;;;;;;10414310;28;20024;-65
2023/04/05 00:27:50;;;;;;;3.75;1.88;;;9.80;87.30;;;;;;10417277;28;20022;-64
2023/04/05 00:32:50;;;;;;;4.63;2.47;;;9.80;87.40;;;;;;10408558;28;20028;-64
2023/04/05 00:37:51;;;;;;;3.78;2.03;;;9.70;87.30;;;;;;10418154;28;20047;-64
2023/04/05 00:42:51;;;;;;;5.63;2.30;;;9.70;87.30;;;;;;10409599;28;20034;-64
2023/04/05 00:47:52;;;;;;;3.50;2.53;;;9.70;87.30;;;;;;10411850;28;20014;-65
2023/04/05 00:52:53;;;;;;;6.25;2.60;;;9.60;87.30;;;;;;10416112;28;20033;-64
2023/04/05 00:57:57;;;;;;;5.03;2.95;;;9.60;87.20;;;;;;10418414;28;20386;-65
2023/04/05 01:03:01;;;;;;;6.38;2.65;;;9.60;87.20;;;;;;10412228;28;20025;-64
2023/04/05 01:08:20;;;;;;;6.00;2.33;;;9.50;87.20;;;;;;10408911;28;20021;-65
2023/04/05 01:13:25;;;;;;;3.60;2.20;;;9.50;87.10;;;;;;10410473;28;20034;-64
2023/04/05 01:18:26;;;;;;;6.20;2.45;;;9.50;87.20;;;;;;10407966;28;20036;-65
2023/04/05 01:23:57;;;;;;;5.68;2.58;;;9.40;87.20;;;;;;10419518;28;20211;-65
2023/04/05 01:29:08;;;;;;;5.15;2.60;;;9.40;87.10;;;;;;10415521;28;20029;-65
2023/04/05 01:34:46;;;;;;;6.13;2.88;;;9.40;87.20;;;;;;10407417;28;20061;-65
2023/04/05 01:39:49;;;;;;;6.27;2.80;;;9.30;87.00;;;;;;10415678;28;20072;-64
2023/04/05 01:44:51;;;;;;;5.88;2.67;;;9.30;87.20;;;;;;10421323;28;20155;-65
2023/04/05 01:49:52;;;;;;;4.35;2.30;;;9.20;87.20;;;;;;10414342;28;20022;-65
2023/04/05 01:54:52;;;;;;;5.40;2.60;;;9.20;87.20;;;;;;10414236;28;20076;-65
2023/04/05 01:59:53;;;;;;;4.35;2.30;;;9.20;87.30;;;;;;10420888;28;20040;-64
2023/04/05 02:04:53;;;;;;;4.82;2.78;;;9.10;87.20;;;;;;10412238;28;20013;-64
2023/04/05 02:09:54;;;;;;;6.38;2.42;;;9.20;87.30;;;;;;10413520;28;20104;-65
2023/04/05 02:14:55;;;;;;;3.53;2.17;;;9.10;87.30;;;;;;10417440;28;20040;-63
2023/04/05 02:20:01;;;;;;;3.70;2.20;;;9.10;87.30;;;;;;10408095;28;20044;-65
2023/04/05 02:25:02;;;;;;;5.38;2.55;;;9.00;87.30;;;;;;10413610;28;20026;-65
2023/04/05 02:30:04;;;;;;;5.80;2.67;;;9.00;87.40;;;;;;10417766;28;20025;-65
2023/04/05 02:35:05;;;;;;;5.80;2.67;;;9.00;87.40;;;;;;10415351;28;20475;-64
2023/04/05 02:40:10;;;;;;;5.03;2.80;;;9.00;87.40;;;;;;10412715;28;20125;-64
2023/04/05 02:45:10;;;;;;;4.70;2.75;;;8.90;87.40;;;;;;10406290;28;20048;-63
2023/04/05 02:50:11;;;;;;;5.63;2.55;;;8.90;87.40;;;;;;10414709;28;20040;-65
2023/04/05 02:55:11;;;;;;;5.03;2.70;;;8.80;87.40;;;;;;10407505;28;20393;-64
2023/04/05 03:00:14;;;;;;;6.22;2.72;;;8.80;87.40;;;;;;10414653;28;20024;-64
2023/04/05 03:05:17;;;;;;;5.43;2.65;;;8.80;87.40;;;;;;10417294;28;20021;-65
2023/04/05 03:10:21;;;;;;;5.00;2.67;;;8.70;87.40;;;;;;10402231;28;20143;-65
2023/04/05 03:15:21;;;;;;;4.43;2.65;;;8.70;87.40;;;;;;10416783;28;20030;-65
2023/04/05 03:20:22;;;;;;;5.32;3.00;;;8.70;87.50;;;;;;10415118;28;20033;-64
2023/04/05 03:25:24;;;;;;;5.30;2.60;;;8.70;87.50;;;;;;10423384;28;20033;-64
2023/04/05 03:30:25;;;;;;;5.53;2.78;;;8.70;87.50;;;;;;10413535;28;20052;-65
2023/04/05 03:35:30;;;;;;;5.55;2.70;;;8.60;87.40;;;;;;10421564;28;20424;-64
2023/04/05 03:40:31;;;;;;;7.03;2.97;;;8.60;87.50;;;;;;10411615;28;20027;-65
2023/04/05 03:45:32;;;;;;;4.90;2.80;;;8.50;87.40;;;;;;10422630;28;20112;-65
2023/04/05 03:50:33;;;;;;;4.60;2.50;;;8.50;87.50;;;;;;10412148;28;20056;-65
2023/04/05 03:55:33;;;;;;;6.95;2.75;;;8.50;87.50;;;;;;10414164;28;20153;-64
2023/04/05 04:00:34;;;;;;;7.90;2.80;;;8.40;87.40;;;;;;10425285;28;20032;-64
2023/04/05 04:05:37;;;;;;;5.88;2.45;;;8.50;87.50;;;;;;10424714;28;20431;-65
2023/04/05 04:10:38;;;;;;;3.35;2.10;;;8.40;87.50;;;;;;10414991;28;20033;-63
2023/04/05 04:15:38;;;;;;;5.90;3.00;;;8.40;87.50;;;;;;10420190;28;20025;-65
2023/04/05 04:20:39;;;;;;;7.43;3.00;;;8.40;87.50;;;;;;10413701;28;20449;-64
2023/04/05 04:25:40;;;;;;;5.68;2.70;;;8.30;87.60;;;;;;10410748;28;20025;-64
2023/04/05 04:30:42;;;;;;;5.03;2.80;;;8.30;87.60;;;;;;10413734;28;20504;-65
2023/04/05 04:35:45;;;;;;;5.65;3.10;;;8.30;87.60;;;;;;10419326;28;20082;-64
2023/04/05 04:40:46;;;;;;;6.10;3.10;;;8.30;87.60;;;;;;10421400;28;20505;-65
2023/04/05 04:45:48;;;;;;;4.40;2.47;;;8.20;87.60;;;;;;10416793;28;20025;-64
2023/04/05 04:50:49;;;;;;;6.38;3.15;;;8.20;87.60;;;;;;10411128;28;20564;-65
2023/04/05 04:55:50;;;;;;;6.55;3.10;;;8.20;87.60;;;;;;10417379;28;20049;-63
2023/04/05 05:00:51;;;;;;;5.28;3.17;;;8.20;87.60;;;;;;10414952;28;20018;-65
2023/04/05 05:05:52;;;;;;;5.90;3.25;;;8.10;87.60;;;;;;10413730;28;20494;-64
2023/04/05 05:10:53;;;;;;;6.97;3.15;;;8.10;87.70;;;;;;10412300;28;20017;-64
2023/04/05 05:15:53;;;;;;;7.25;2.92;;;8.10;87.60;;;;;;10409300;28;20174;-64
2023/04/05 05:20:54;;;;;;;4.88;3.05;;;8.10;87.60;;;;;;10415809;28;20074;-64
2023/04/05 05:25:58;;;;;;;8.85;3.47;;;8.00;87.60;;;;;;10414230;28;20021;-65
2023/04/05 05:30:59;;;;;;;8.35;3.03;;;8.00;87.60;;;;;;10422979;28;20025;-64
2023/04/05 05:36:00;;;;;;;5.20;2.80;;;8.00;87.60;;;;;;10413298;28;20478;-63
2023/04/05 05:41:01;;;;;;;6.35;3.17;;;8.00;87.60;;;;;;10414461;28;20266;-62
2023/04/05 05:46:01;;;;;;;7.38;3.35;;;8.00;87.60;;;;;;10420894;28;20017;-64
2023/04/05 05:51:08;;;;;;;5.68;2.95;;;8.00;87.60;;;;;;10415618;28;20027;-64
2023/04/05 05:56:09;;;;;;;5.85;3.25;;;8.00;87.80;;;;;;10399090;28;20021;-64
2023/04/05 06:01:10;;;;;;;7.05;3.00;;;8.00;87.50;;;;;;10407104;28;20435;-64
2023/04/05 06:06:11;;;;;;;8.07;3.75;;;8.00;87.40;;;;;;10396910;28;20044;-65
2023/04/05 06:11:18;;;;;;;7.78;3.40;;;8.00;87.40;;;;;;10411193;28;20516;-64
2023/04/05 06:16:20;;;;;;;8.27;3.33;;;8.00;87.40;;;;;;10402053;28;20429;-64
2023/04/05 06:21:20;;;;;;;6.15;3.30;;;8.00;87.40;;;;;;10410664;28;20020;-64
2023/04/05 06:26:25;;;;;;;6.30;3.15;;;8.00;87.30;;;;;;10410097;28;20027;-64
2023/04/05 06:31:30;;;;;;;7.25;3.78;;;8.00;87.40;;;;;;10411784;28;20032;-63
2023/04/05 06:36:32;;;;;;;7.80;3.75;;;8.00;87.30;;;;;;10405709;28;20033;-63
2023/04/05 06:41:33;;;;;;;7.32;3.95;;;8.00;87.30;;;;;;10411606;28;20026;-63
2023/04/05 06:46:34;;;;;;;6.50;3.75;;;8.00;87.30;;;;;;10406574;28;20503;-64
2023/04/05 06:51:34;;;;;;;5.72;3.58;;;8.00;87.30;;;;;;10412443;28;20528;-63
2023/04/05 06:56:35;;;;;;;9.50;4.00;;;8.00;87.20;;;;;;10410430;28;20047;-64
2023/04/05 07:01:36;;;;;;;8.77;3.72;;;8.00;87.30;;;;;;10418478;28;20022;-64
2023/04/05 07:06:37;;;;;;;6.90;3.30;;;8.00;87.30;;;;;;10422312;28;20025;-64
2023/04/05 07:11:38;;;;;;;7.00;3.55;;;8.10;87.30;;;;;;10419308;28;20026;-64
2023/04/05 07:16:39;;;;;;;6.80;3.38;;;8.10;87.30;;;;;;10412450;28;20025;-63
2023/04/05 07:21:40;;;;;;;7.88;3.75;;;8.10;87.20;;;;;;10420626;28;20030;-63
2023/04/05 07:26:40;;;;;;;7.13;4.07;;;8.20;87.20;;;;;;10413250;28;20505;-64
2023/04/05 07:31:41;;;;;;;8.70;4.38;;;8.20;87.10;;;;;;10421766;28;20043;-64
2023/04/05 07:36:42;;;;;;;7.57;3.60;;;8.30;87.10;;;;;;10414760;28;20026;-63
2023/04/05 07:41:42;;;;;;;11.10;3.80;;;8.30;87.10;;;;;;10410614;28;20033;-64
2023/04/05 07:46:43;;;;;;;6.15;3.38;;;8.40;87.10;;;;;;10401510;28;20029;-63
2023/04/05 07:51:45;;;;;;;7.65;3.80;;;8.50;87.00;;;;;;10408877;28;20178;-63
2023/04/05 07:56:45;;;;;;;7.90;3.45;;;8.50;86.90;;;;;;10408850;28;20021;-63
2023/04/05 08:01:46;;;;;;;9.23;3.63;;;8.60;87.00;;;;;;10403896;28;20013;-63
2023/04/05 08:06:47;;;;;;;6.45;3.58;;;8.60;86.90;;;;;;10401329;28;20094;-63
2023/04/05 08:11:47;;;;;;;6.78;3.30;;;8.60;86.90;;;;;;10406891;28;20240;-64
2023/04/05 08:16:49;;;;;;;7.63;3.72;;;8.70;87.20;;;;;;10402712;28;20029;-63
2023/04/05 08:21:51;;;;;;;8.93;3.45;;;8.90;88.00;;;;;;10399781;28;20128;-65
2023/04/05 08:26:52;;;;;;;5.35;3.35;;;8.90;87.60;;;;;;10408554;28;20029;-64
2023/04/05 08:31:56;;;;;;;5.55;3.60;;;8.80;87.60;;;;;;10406961;28;20523;-63
2023/04/05 08:36:58;;;;;;;7.15;3.65;;;8.80;87.70;;;;;;10404327;28;20037;-65
2023/04/05 08:42:17;;;;;;;5.53;3.08;;;8.80;87.90;;;;;;10407674;28;20021;-65
2023/04/05 08:47:18;;;;;;;7.15;3.47;;;8.80;88.60;;;;;;10391031;28;20288;-63
2023/04/05 08:52:19;;;;;;;7.18;3.78;;;8.90;88.20;;;;;;10407029;28;20033;-65
2023/04/05 08:57:28;;;;;;;7.18;3.10;;;8.90;87.80;;;;;;10405714;28;20030;-64
2023/04/05 09:02:30;;;;;;;6.45;3.20;;;8.90;87.90;;;;;;10402840;28;20022;-64
2023/04/05 09:07:30;;;;;;;6.57;3.65;;;8.90;87.90;;;;;;10412397;28;20026;-64
2023/04/05 09:12:31;;;;;;;5.25;2.90;;;9.00;88.00;;;;;;10407985;28;20098;-64
2023/04/05 09:17:33;;;;;;;5.38;3.00;;;9.00;88.00;;;;;;10406849;28;20120;-64
2023/04/05 09:22:44;;;;;;;4.97;2.97;;;9.00;87.90;;;;;;10402847;28;20052;-64
2023/04/05 09:27:55;;;;;;;6.10;3.53;;;9.00;87.80;;;;;;10406194;28;20041;-64
2023/04/05 09:32:56;;;;;;;6.53;3.38;;;9.00;87.70;;;;;;10414786;28;20035;-64
2023/04/05 09:37:58;;;;;;;5.53;3.13;;;9.10;87.60;;;;;;10413180;28;20030;-64
2023/04/05 09:43:00;;;;;;;6.50;3.60;;;9.10;87.50;;;;;;10395394;28;20056;-64
2023/04/05 09:48:01;;;;;;;10.27;4.55;;;9.10;87.30;;;;;;10404363;28;20095;-67
2023/04/05 09:53:06;;;;;;;7.60;4.40;;;9.10;86.10;;;;;;10403749;28;20025;-67
2023/04/05 09:58:19;;;;;;;11.93;4.88;;;9.00;84.30;;;;;;10409026;28;20718;-67
2023/04/05 10:03:20;;;;;;;8.13;5.22;;;8.90;83.00;;;;;;10401209;28;20021;-66
2023/04/05 10:08:22;;;;;;;8.13;4.80;;;8.90;83.20;;;;;;10404891;28;20049;-66
2023/04/05 10:13:23;;;;;;;9.43;4.55;;;9.00;83.30;;;;;;10396963;28;20036;-63
2023/04/05 10:18:38;;;;;;;7.03;3.83;;;9.10;83.30;;;;;;10402559;28;20028;-65
2023/04/05 10:23:43;;;;;;;8.43;3.97;;;9.20;83.10;;;;;;10416418;28;20075;-66
2023/04/05 10:28:50;;;;;;;7.90;4.10;;;9.30;83.00;;;;;;10415482;28;20029;-65
2023/04/05 10:34:03;;;;;;;7.95;4.00;;;9.40;82.80;;;;;;10415448;28;20100;-64
2023/04/05 10:39:15;;;;;;;8.77;3.88;;;9.50;82.60;;;;;;10409066;28;20022;-66
2023/04/05 10:44:16;;;;;;;4.95;3.40;;;9.60;82.40;;;;;;10402548;28;20116;-64
2023/04/05 10:49:25;;;;;;;6.15;3.75;;;9.70;82.60;;;;;;10414449;28;20100;-64
2023/04/05 10:54:27;;;;;;;7.85;3.40;;;9.70;82.40;;;;;;10411638;28;20667;-66
2023/04/05 10:59:29;;;;;;;6.05;3.17;;;9.80;82.60;;;;;;10412008;28;20631;-64
2023/04/05 11:04:32;;;;;;;5.78;2.97;;;9.90;82.60;;;;;;10416125;28;20323;-65
2023/04/05 11:09:33;;;;;;;6.70;3.28;;;10.00;82.30;;;;;;10410512;28;20037;-66
2023/04/05 11:14:42;;;;;;;6.10;3.38;;;10.10;82.30;;;;;;10413898;28;20064;-66
2023/04/05 11:19:43;;;;;;;6.07;2.77;;;10.20;81.70;;;;;;10409047;28;20028;-66
2023/04/05 11:24:52;;;;;;;7.32;3.00;;;10.20;81.60;;;;;;10417417;28;20400;-66
2023/04/05 11:29:53;;;;;;;6.25;2.80;;;10.30;81.50;;;;;;10406017;28;20037;-66
2023/04/05 11:35:11;;;;;;;5.82;2.95;;;10.40;82.10;;;;;;10399496;28;20029;-66
2023/04/05 11:40:32;;;;;;;5.20;2.65;;;10.50;81.60;;;;;;10411833;28;20030;-66
2023/04/05 11:45:34;;;;;;;4.50;2.78;;;10.50;80.90;;;;;;10410343;28;20036;-65
2023/04/05 11:50:37;;;;;;;5.07;2.60;;;10.60;81.30;;;;;;10407593;28;20029;-65
2023/04/05 11:55:49;;;;;;;3.65;2.38;;;10.60;81.40;;;;;;10410314;28;20021;-64
2023/04/05 12:01:00;;;;;;;7.53;3.65;;;10.70;82.00;;;;;;10415478;28;20060;-66
2023/04/05 12:06:03;;;;;;;7.35;3.70;;;10.80;78.80;;;;;;10407147;28;20523;-67
2023/04/05 12:11:07;;;;;;;7.93;4.30;;;10.80;78.10;;;;;;10413101;28;20505;-66
2023/04/05 12:16:08;;;;;;;6.85;4.03;;;10.80;76.20;;;;;;10408736;28;20059;-65
2023/04/05 12:21:09;;;;;;;5.45;3.83;;;10.80;75.50;;;;;;10405834;28;20109;-66
2023/04/05 12:26:10;;;;;;;5.93;4.00;;;10.80;74.40;;;;;;10410623;28;20052;-67
2023/04/05 12:31:10;;;;;;;8.73;4.50;;;10.80;74.40;;;;;;10406033;28;20059;-67
2023/04/05 12:36:13;;;;;;;7.55;3.83;;;10.90;73.80;;;;;;10405065;28;20033;-69
2023/04/05 12:41:14;;;;;;;7.43;3.88;;;10.90;73.50;;;;;;10408206;28;20021;-68
2023/04/05 12:46:18;;;;;;;8.90;4.07;;;11.10;73.10;;;;;;10411335;28;20028;-68
2023/04/05 12:51:19;;;;;;;6.75;4.20;;;11.20;72.20;;;;;;10404600;28;20522;-69
2023/04/05 12:56:19;;;;;;;6.38;3.92;;;11.30;71.80;;;;;;10408004;28;20020;-69
2023/04/05 13:01:20;;;;;;;8.90;4.18;;;11.30;71.60;;;;;;10407030;28;20109;-67
2023/04/05 13:06:20;;;;;;;8.05;4.28;;;11.30;70.80;;;;;;10405947;28;20026;-69
2023/04/05 13:11:21;;;;;;;7.35;4.47;;;11.20;69.50;;;;;;10402071;28;20025;-68
2023/04/05 13:16:22;;;;;;;7.85;4.13;;;11.00;69.90;;;;;;10400595;28;20018;-67
2023/04/05 13:21:23;;;;;;;10.55;4.88;;;11.20;69.50;;;;;;10402632;28;20437;-68
2023/04/05 13:26:24;;;;;;;8.45;4.43;;;11.20;68.70;;;;;;10407239;28;20025;-72
2023/04/05 13:31:26;;;;;;;8.23;4.25;;;11.40;69.00;;;;;;10410697;28;20025;-70
2023/04/05 13:36:26;;;;;;;7.15;4.18;;;11.60;68.80;;;;;;10403821;28;20033;-71
2023/04/05 13:41:27;;;;;;;7.45;4.40;;;11.70;68.40;;;;;;10406854;28;20017;-71
2023/04/05 13:46:27;;;;;;;6.38;3.97;;;11.80;67.90;;;;;;10408984;28;20029;-69
2023/04/05 13:51:32;;;;;;;7.35;4.50;;;11.90;67.20;;;;;;10407432;28;20061;-69
2023/04/05 13:56:33;;;;;;;5.82;4.22;;;11.90;67.40;;;;;;10399158;28;20083;-70
2023/04/05 14:01:34;;;;;;;9.98;4.18;;;12.00;67.20;;;;;;10404542;28;20099;-70
2023/04/05 14:06:35;;;;;;;8.70;4.93;;;12.20;66.90;;;;;;10402401;28;20485;-71
2023/04/05 14:11:35;;;;;;;9.75;4.45;;;12.20;66.20;;;;;;10404847;28;20034;-68
2023/04/05 14:16:36;;;;;;;6.95;3.83;;;12.30;65.70;;;;;;10402082;28;20034;-68
2023/04/05 14:21:37;;;;;;;7.25;4.43;;;12.50;65.60;;;;;;10404062;28;20026;-68
2023/04/05 14:26:38;;;;;;;8.52;4.15;;;12.80;65.40;;;;;;10409276;28;20037;-68
2023/04/05 14:31:39;;;;;;;7.38;3.85;;;12.90;65.20;;;;;;10403342;28;20025;-69
2023/04/05 14:36:39;;;;;;;6.55;4.20;;;12.90;64.20;;;;;;10408103;28;20032;-70
2023/04/05 14:41:40;;;;;;;9.60;4.53;;;13.10;64.30;;;;;;10408650;28;20112;-68
2023/04/05 14:46:41;;;;;;;12.00;3.97;;;13.30;64.20;;;;;;10409307;28;20048;-68
2023/04/05 14:51:41;;;;;;;5.63;4.40;;;13.40;63.60;;;;;;10409225;28;20075;-68
2023/04/05 14:56:42;;;;;;;7.10;4.30;;;13.60;63.70;;;;;;10408463;28;20451;-68
2023/04/05 15:01:44;;;;;;;7.97;4.47;;;13.40;63.20;;;;;;10408199;28;20112;-69
2023/04/05 15:06:44;;;;;;;7.32;4.88;;;13.10;63.50;;;;;;10410094;28;20014;-68
2023/04/05 15:11:45;;;;;;;6.47;4.18;;;13.20;63.30;;;;;;10418063;28;20033;-69
2023/04/05 15:16:46;;;;;;;9.25;4.40;;;13.20;62.90;;;;;;10410445;28;20412;-71
2023/04/05 15:21:46;;;;;;;6.53;4.15;;;13.20;63.00;;;;;;10407766;28;20486;-68
2023/04/05 15:26:47;;;;;;;7.78;4.75;;;13.20;62.80;;;;;;10415231;28;20033;-68
2023/04/05 15:31:47;;;;;;;7.10;4.10;;;13.20;62.80;;;;;;10413762;28;20112;-68
2023/04/05 15:36:48;;;;;;;9.40;4.90;;;13.10;62.90;;;;;;10406824;28;20037;-70
2023/04/05 15:41:49;;;;;;;13.05;5.15;;;12.90;62.10;;;;;;10398555;28;20022;-68
2023/04/05 15:46:50;;;;;;;6.55;4.32;;;12.80;62.40;;;;;;10402472;28;20032;-69
2023/04/05 15:51:50;;;;;;;6.18;4.25;;;12.70;62.60;;;;;;10410389;28;20375;-68
2023/04/05 15:56:51;;;;;;;6.47;4.35;;;12.50;63.10;;;;;;10406498;28;20018;-68
2023/04/05 16:01:52;;;;;;;6.80;4.38;;;12.20;62.60;;;;;;10410998;28;20036;-68
2023/04/05 16:06:53;;;;;;;8.38;4.65;;;12.00;63.00;;;;;;10409035;28;20034;-67
2023/04/05 16:11:55;;;;;;;11.30;5.18;;;11.90;63.30;;;;;;10412689;28;20374;-68
2023/04/05 16:16:55;;;;;;;8.48;4.63;;;11.70;63.50;;;;;;10415044;28;20049;-67
2023/04/05 16:21:56;;;;;;;7.65;4.85;;;11.60;63.60;;;;;;10402914;28;20374;-68
2023/04/05 16:26:57;;;;;;;9.07;5.03;;;11.60;63.20;;;;;;10407701;28;20026;-68
2023/04/05 16:31:58;;;;;;;7.75;4.55;;;11.60;63.40;;;;;;10406422;28;20026;-68
2023/04/05 16:36:59;;;;;;;7.28;4.50;;;11.50;63.10;;;;;;10408890;28;20044;-67
2023/04/05 16:41:59;;;;;;;8.20;4.72;;;11.40;63.00;;;;;;10406721;28;20024;-68
2023/04/05 16:47:00;;;;;;;8.75;4.53;;;11.30;63.40;;;;;;10407909;28;20417;-67
2023/04/05 16:52:00;;;;;;;7.90;4.72;;;11.20;64.00;;;;;;10408498;28;20571;-69
2023/04/05 16:57:01;;;;;;;7.15;4.43;;;11.00;63.80;;;;;;10402652;28;20033;-67
2023/04/05 17:02:02;;;;;;;7.80;4.20;;;10.80;64.10;;;;;;10398131;28;20026;-66
2023/04/05 17:07:02;;;;;;;7.68;4.45;;;10.70;64.40;;;;;;10399211;28;20026;-66
2023/04/05 17:12:03;;;;;;;9.18;4.75;;;10.60;64.50;;;;;;10409514;28;20029;-67
2023/04/05 17:17:04;;;;;;;10.45;4.72;;;10.60;64.30;;;;;;10407842;28;20029;-69
2023/04/05 17:22:05;;;;;;;6.32;4.32;;;10.50;63.60;;;;;;10403916;28;20405;-68
2023/04/05 17:27:05;;;;;;;9.05;4.93;;;10.50;63.80;;;;;;10408849;28;20030;-68
2023/04/05 17:32:06;;;;;;;7.78;4.03;;;10.40;64.00;;;;;;10411428;28;20034;-67
2023/04/05 17:37:07;;;;;;;7.80;4.13;;;10.30;64.10;;;;;;10407693;28;20025;-67
2023/04/05 17:42:07;;;;;;;10.30;4.28;;;10.20;64.30;;;;;;10411583;28;20052;-66
2023/04/05 17:47:08;;;;;;;7.55;4.55;;;10.20;64.40;;;;;;10416142;28;20090;-67
2023/04/05 17:52:09;;;;;;;15.35;6.22;;;10.10;64.60;;;;;;10409540;28;20021;-67
2023/04/05 17:57:13;;;;;;;11.10;5.60;;;10.00;64.90;;;;;;10413505;28;20396;-67
2023/04/05 18:02:14;;;;;;;10.18;5.03;;;9.90;65.20;;;;;;10393857;28;20033;-66
2023/04/05 18:07:15;;;;;;;5.82;3.55;;;9.80;65.60;;;;;;10391723;28;20508;-66
2023/04/05 18:12:15;;;;;;;7.82;4.10;;;9.90;65.80;;;;;;10395431;28;20033;-68
2023/04/05 18:17:16;;;;;;;7.20;4.13;;;9.90;66.00;;;;;;10398873;28;20337;-66
2023/04/05 18:22:17;;;;;;;7.03;3.72;;;10.00;66.70;;;;;;10399056;28;20041;-67
2023/04/05 18:27:17;;;;;;;6.68;3.67;;;10.10;66.90;;;;;;10390186;28;20025;-65
2023/04/05 18:32:18;;;;;;;6.35;3.78;;;10.40;67.20;;;;;;10400585;28;20072;-65
2023/04/05 18:37:19;;;;;;;9.65;4.30;;;10.60;67.00;;;;;;10401690;28;20588;-65
2023/04/05 18:42:19;;;;;;;6.57;3.55;;;10.80;67.10;;;;;;10402631;28;20493;-64
2023/04/05 18:47:20;;;;;;;7.72;3.50;;;10.90;67.30;;;;;;10410210;28;20060;-64
2023/04/05 18:52:25;;;;;;;5.22;3.25;;;11.00;67.50;;;;;;10419064;28;20104;-65
2023/04/05 18:57:27;;;;;;;4.75;3.13;;;11.10;67.70;;;;;;10407958;28;20025;-64
2023/04/05 19:02:29;;;;;;;4.40;2.78;;;11.20;67.90;;;;;;10419168;28;20053;-65
2023/04/05 19:07:29;;;;;;;5.30;3.00;;;11.20;68.00;;;;;;10411213;28;20108;-65
2023/04/05 19:12:30;;;;;;;6.05;2.53;;;11.20;68.20;;;;;;10406148;28;20151;-66
2023/04/05 19:17:30;;;;;;;4.13;2.35;;;11.20;68.40;;;;;;10406863;28;20145;-66
2023/04/05 19:22:31;;;;;;;6.50;3.22;;;11.30;68.70;;;;;;10404066;28;20030;-65
2023/04/05 19:27:33;;;;;;;3.92;2.33;;;11.30;68.90;;;;;;10405126;28;20033;-65
2023/04/05 19:32:34;;;;;;;6.20;2.45;;;11.30;69.10;;;;;;10413604;28;20144;-66
2023/04/05 19:37:35;;;;;;;3.85;2.47;;;11.30;69.30;;;;;;10414802;28;20082;-65
2023/04/05 19:42:35;;;;;;;5.43;2.47;;;11.30;69.40;;;;;;10407828;28;20036;-66
2023/04/05 19:47:44;;;;;;;4.47;2.35;;;11.30;69.70;;;;;;10415808;28;20029;-65
2023/04/05 19:52:46;;;;;;;;;;;11.30;70.10;;;;;;10400600;28;20033;-66
2023/04/05 19:57:46;;;;;;;3.58;2.05;;;11.30;70.40;;;;;;10407627;28;19909;-65
2023/04/05 20:02:47;;;;;;;4.10;2.30;;;11.30;70.30;;;;;;10402451;28;20026;-65
2023/04/05 20:07:47;;;;;;;3.45;2.25;;;11.20;70.40;;;;;;10404956;28;20051;-65
2023/04/05 20:12:48;;;;;;;5.75;2.60;;;11.20;70.60;;;;;;10401422;28;20021;-65
2023/04/05 20:17:49;;;;;;;4.65;2.60;;;11.20;70.80;;;;;;10412801;28;20390;-65
2023/04/05 20:22:49;;;;;;;5.13;2.80;;;11.20;70.90;;;;;;10416336;28;20023;-66
2023/04/05 20:27:50;;;;;;;4.22;2.67;;;11.20;71.00;;;;;;10409878;28;20371;-66
2023/04/05 20:32:51;;;;;;;4.47;2.33;;;11.20;71.20;;;;;;10412634;28;20028;-65
2023/04/05 20:37:51;;;;;;;4.75;2.35;;;11.10;71.30;;;;;;10411331;28;20408;-66
2023/04/05 20:42:52;;;;;;;4.05;2.35;;;11.10;71.30;;;;;;10411408;28;20662;-66
2023/04/05 20:47:53;;;;;;;4.18;2.65;;;11.10;71.50;;;;;;10410786;28;20325;-65
2023/04/05 20:52:53;;;;;;;3.85;2.40;;;11.10;71.60;;;;;;10407670;28;20041;-66
2023/04/05 20:57:54;;;;;;;4.65;2.70;;;11.00;71.60;;;;;;10424896;28;20533;-66
2023/04/05 21:02:55;;;;;;;4.82;2.55;;;11.00;71.70;;;;;;10408707;28;20396;-65
2023/04/05 21:07:56;;;;;;;3.70;2.55;;;11.00;71.80;;;;;;10411401;28;20028;-67
2023/04/05 21:12:56;;;;;;;8.90;3.08;;;11.00;71.90;;;;;;10404412;28;20048;-66
2023/04/05 21:18:00;;;;;;;4.43;2.95;;;10.90;72.00;;;;;;10398220;28;20037;-65
2023/04/05 21:23:06;;;;;;;5.65;3.10;;;10.90;72.10;;;;;;10402672;28;20067;-65
2023/04/05 21:28:07;;;;;;;4.65;2.67;;;10.90;72.20;;;;;;10403091;28;21027;-66
2023/04/05 21:33:07;;;;;;;4.53;2.80;;;10.90;72.30;;;;;;10391308;28;20056;-66
2023/04/05 21:38:08;;;;;;;4.78;2.60;;;10.80;72.30;;;;;;10404013;28;20044;-66
2023/04/05 21:43:09;;;;;;;5.53;3.05;;;10.80;72.40;;;;;;10404871;28;20029;-65
2023/04/05 21:48:10;;;;;;;4.15;2.58;;;10.80;72.50;;;;;;10407445;28;20021;-66
2023/04/05 21:53:10;;;;;;;5.28;2.97;;;10.70;72.50;;;;;;10406800;28;20029;-66
2023/04/05 21:58:11;;;;;;;4.57;2.90;;;10.70;72.60;;;;;;10411194;28;20033;-66
2023/04/05 22:03:12;;;;;;;5.50;3.38;;;10.70;72.70;;;;;;10408448;28;20017;-66
2023/04/05 22:08:12;;;;;;;4.80;2.95;;;10.70;72.70;;;;;;10399019;28;20052;-66
2023/04/05 22:13:13;;;;;;;5.53;3.55;;;10.60;72.70;;;;;;10408230;28;20170;-66
2023/04/05 22:18:14;;;;;;;5.65;3.20;;;10.60;72.70;;;;;;10412266;28;20025;-65
2023/04/05 22:23:14;;;;;;;5.68;3.35;;;10.60;72.80;;;;;;10415303;28;20048;-66
2023/04/05 22:28:15;;;;;;;5.75;3.22;;;10.60;72.90;;;;;;10418899;28;20021;-66
2023/04/05 22:33:16;;;;;;;3.95;3.15;;;10.60;72.90;;;;;;10412001;28;20017;-65
2023/04/05 22:38:16;;;;;;;5.40;3.05;;;10.50;72.90;;;;;;10414660;28;20075;-66
2023/04/05 22:43:17;;;;;;;4.35;2.97;;;10.50;72.90;;;;;;10414279;28;20040;-66
2023/04/05 22:48:18;;;;;;;5.45;2.97;;;10.50;73.10;;;;;;10410714;28;20026;-66
2023/04/05 22:53:19;;;;;;;3.63;2.70;;;10.50;73.10;;;;;;10410147;28;20017;-65
2023/04/05 22:58:21;;;;;;;5.82;2.75;;;10.40;73.10;;;;;;10417231;28;20199;-65
2023/04/05 23:03:21;;;;;;;5.32;3.17;;;10.40;73.10;;;;;;10410437;28;20457;-66
2023/04/05 23:08:22;;;;;;;5.85;3.10;;;10.40;73.20;;;;;;10417610;28;20121;-65
2023/04/05 23:13:22;;;;;;;4.55;2.88;;;10.50;73.30;;;;;;10417615;28;20022;-66
2023/04/05 23:18:23;;;;;;;6.25;2.97;;;10.40;73.20;;;;;;10407693;28;20178;-66
2023/04/05 23:23:24;;;;;;;4.97;3.08;;;10.30;73.20;;;;;;10419543;28;20207;-66
2023/04/05 23:28:25;;;;;;;5.63;3.05;;;10.30;73.20;;;;;;10412266;28;20086;-65
2023/04/05 23:33:25;;;;;;;5.43;2.60;;;10.30;73.20;;;;;;10411849;28;20481;-66
2023/04/05 23:38:26;;;;;;;4.90;2.88;;;10.30;73.30;;;;;;10412879;28;20112;-66
2023/04/05 23:43:26;;;;;;;7.07;3.33;;;10.20;73.20;;;;;;10410017;28;20486;-65
2023/04/05 23:48:27;;;;;;;5.35;3.35;;;10.20;73.30;;;;;;10409800;28;20521;-66
2023/04/05 23:53:28;;;;;;;4.78;3.05;;;10.20;73.30;;;;;;10409543;28;20386;-65
2023/04/05 23:58:28;;;;;;;6.03;3.05;;;10.20;73.30;;;;;;10406480;28;20039;-65
